createdAt,value
2017-03-01T00:00:57.309Z,716.85
2017-03-01T00:01:57.280Z,716.32
2017-03-01T00:02:57.256Z,716.39
2017-03-01T00:03:57.230Z,716.59
2017-03-01T00:04:57.203Z,716.64
2017-03-01T00:05:57.178Z,716.52
2017-03-01T00:06:57.151Z,716.44
2017-03-01T00:07:57.127Z,716.43
2017-03-01T00:08:57.100Z,716.28
2017-03-01T00:09:57.082Z,716.43
2017-03-01T00:10:57.051Z,716.67
2017-03-01T00:11:57.027Z,716.62
2017-03-01T00:12:56.997Z,716.71
2017-03-01T00:13:56.972Z,716.76
2017-03-01T00:14:56.952Z,716.79
2017-03-01T00:15:56.925Z,716.75
2017-03-01T00:16:56.896Z,716.63
2017-03-01T00:17:56.871Z,716.71
2017-03-01T00:18:56.845Z,716.67
2017-03-01T00:19:56.823Z,716.74
2017-03-01T00:20:56.794Z,716.66
2017-03-01T00:21:56.773Z,716.56
2017-03-01T00:22:56.744Z,716.68
2017-03-01T00:23:56.722Z,716.8
2017-03-01T00:24:56.697Z,716.76
2017-03-01T00:25:56.672Z,716.7
2017-03-01T00:26:56.646Z,716.69
2017-03-01T00:27:56.621Z,716.86
2017-03-01T00:28:56.592Z,716.78
2017-03-01T00:29:56.570Z,716.73
2017-03-01T00:30:56.551Z,716.67
2017-03-01T00:31:56.516Z,716.6
2017-03-01T00:32:56.496Z,716.59
2017-03-01T00:33:56.469Z,716.75
2017-03-01T00:34:56.439Z,716.74
2017-03-01T00:35:56.417Z,716.7
2017-03-01T00:36:56.389Z,716.83
2017-03-01T00:37:56.362Z,716.75
2017-03-01T00:38:56.342Z,716.9
2017-03-01T00:39:56.312Z,717
2017-03-01T00:40:56.290Z,716.94
2017-03-01T00:41:56.260Z,716.83
2017-03-01T00:42:56.237Z,716.99
2017-03-01T00:43:56.215Z,716.97
2017-03-01T00:44:56.191Z,716.97
2017-03-01T00:45:56.163Z,716.72
2017-03-01T00:46:56.138Z,717.02
2017-03-01T00:47:56.113Z,717.09
2017-03-01T00:48:56.084Z,716.97
2017-03-01T00:49:56.062Z,717.11
2017-03-01T00:50:56.037Z,717.26
2017-03-01T00:51:56.007Z,717.08
2017-03-01T00:52:55.986Z,717.12
2017-03-01T00:53:55.956Z,716.99
2017-03-01T00:54:55.931Z,717.16
2017-03-01T00:55:55.906Z,717.08
2017-03-01T00:56:55.885Z,717.04
2017-03-01T00:57:55.855Z,716.85
2017-03-01T00:58:55.833Z,716.77
2017-03-01T00:59:55.804Z,716.94
2017-03-01T01:00:55.783Z,717.2
2017-03-01T01:01:55.753Z,717.26
2017-03-01T01:02:55.732Z,717.37
2017-03-01T01:03:55.704Z,717.37
2017-03-01T01:04:55.679Z,717.61
2017-03-01T01:05:55.653Z,717.44
2017-03-01T01:06:55.630Z,717.32
2017-03-01T01:07:55.602Z,717.45
2017-03-01T01:08:55.580Z,717.58
2017-03-01T01:09:55.551Z,717.31
2017-03-01T01:10:55.525Z,717.36
2017-03-01T01:11:55.506Z,717.31
2017-03-01T01:12:55.475Z,717.5
2017-03-01T01:13:55.453Z,717.17
2017-03-01T01:14:55.423Z,716.49
2017-03-01T01:15:55.403Z,716.77
2017-03-01T01:16:55.374Z,717.1
2017-03-01T01:17:55.351Z,716.72
2017-03-01T01:18:55.322Z,716.9
2017-03-01T01:19:55.296Z,717.04
2017-03-01T01:20:55.269Z,717.12
2017-03-01T01:21:55.243Z,716.93
2017-03-01T01:22:55.222Z,717.12
2017-03-01T01:23:55.196Z,717.06
2017-03-01T01:24:55.170Z,717
2017-03-01T01:25:55.144Z,717.3
2017-03-01T01:26:55.114Z,717.15
2017-03-01T01:27:55.092Z,717.01
2017-03-01T01:28:55.062Z,716.92
2017-03-01T01:29:55.041Z,716.94
2017-03-01T01:30:55.015Z,717.08
2017-03-01T01:31:54.989Z,716.98
2017-03-01T01:32:54.964Z,717.04
2017-03-01T01:33:54.934Z,716.93
2017-03-01T01:34:54.913Z,716.76
2017-03-01T01:35:54.887Z,716.78
2017-03-01T01:36:54.856Z,716.8
2017-03-01T01:37:54.830Z,716.7
2017-03-01T01:38:54.809Z,716.8
2017-03-01T01:39:54.782Z,716.93
2017-03-01T01:40:54.756Z,717
2017-03-01T01:41:54.730Z,717.11
2017-03-01T01:42:54.728Z,717.12
2017-03-01T01:43:54.678Z,717.08
2017-03-01T01:44:54.648Z,716.94
2017-03-01T01:45:54.626Z,717.08
2017-03-01T01:46:54.596Z,717.03
2017-03-01T01:47:54.571Z,717.05
2017-03-01T01:48:54.546Z,717.17
2017-03-01T01:49:54.519Z,717.39
2017-03-01T01:50:54.497Z,717.07
2017-03-01T01:51:54.471Z,717.22
2017-03-01T01:52:54.446Z,716.73
2017-03-01T01:53:54.420Z,716.92
2017-03-01T01:54:54.393Z,716.9
2017-03-01T01:55:54.369Z,716.99
2017-03-01T01:56:54.339Z,716.98
2017-03-01T01:57:54.313Z,717.01
2017-03-01T01:58:54.288Z,717.11
2017-03-01T01:59:54.266Z,717.1
2017-03-01T02:00:54.236Z,717
2017-03-01T02:01:54.214Z,717.06
2017-03-01T02:02:54.185Z,717.07
2017-03-01T02:03:54.162Z,717.02
2017-03-01T02:04:54.137Z,717.14
2017-03-01T02:05:54.112Z,717.1
2017-03-01T02:06:54.083Z,717.13
2017-03-01T02:07:54.056Z,717.09
2017-03-01T02:08:54.030Z,717.06
2017-03-01T02:09:54.009Z,717.15
2017-03-01T02:10:53.979Z,717.07
2017-03-01T02:11:53.954Z,717.07
2017-03-01T02:12:53.931Z,717.07
2017-03-01T02:13:53.906Z,717.16
2017-03-01T02:14:53.876Z,716.85
2017-03-01T02:15:53.849Z,717.07
2017-03-01T02:16:53.824Z,716.81
2017-03-01T02:17:53.798Z,716.78
2017-03-01T02:18:53.774Z,716.82
2017-03-01T02:19:53.746Z,716.98
2017-03-01T02:20:53.724Z,716.9
2017-03-01T02:21:53.699Z,717.14
2017-03-01T02:22:53.672Z,717
2017-03-01T02:23:53.643Z,717.05
2017-03-01T02:24:53.620Z,717.08
2017-03-01T02:25:53.594Z,717.19
2017-03-01T02:26:53.565Z,717.25
2017-03-01T02:27:53.538Z,717.07
2017-03-01T02:28:53.517Z,717.21
2017-03-01T02:29:53.491Z,716.65
2017-03-01T02:30:53.464Z,717
2017-03-01T02:31:53.440Z,717.29
2017-03-01T02:32:53.410Z,716.95
2017-03-01T02:33:53.388Z,716.95
2017-03-01T02:34:53.358Z,717.03
2017-03-01T02:35:53.331Z,717.44
2017-03-01T02:36:53.310Z,717.26
2017-03-01T02:37:53.278Z,717.33
2017-03-01T02:38:53.257Z,717.23
2017-03-01T02:39:53.227Z,717.04
2017-03-01T02:40:53.206Z,717.17
2017-03-01T02:41:53.179Z,717.04
2017-03-01T02:42:53.153Z,717.14
2017-03-01T02:43:53.127Z,717.28
2017-03-01T02:44:53.101Z,717.25
2017-03-01T02:45:53.074Z,717.18
2017-03-01T02:46:53.049Z,717.14
2017-03-01T02:47:53.023Z,717.07
2017-03-01T02:48:52.993Z,717.05
2017-03-01T02:49:52.966Z,717.14
2017-03-01T02:50:52.945Z,717.22
2017-03-01T02:51:52.916Z,717.31
2017-03-01T02:52:52.892Z,717.24
2017-03-01T02:53:52.867Z,717.19
2017-03-01T02:54:52.841Z,717.36
2017-03-01T02:55:52.816Z,717.52
2017-03-01T02:56:52.785Z,717.38
2017-03-01T02:57:52.759Z,717.17
2017-03-01T02:58:52.738Z,717.44
2017-03-01T02:59:52.707Z,717.42
2017-03-01T03:00:52.685Z,717.4
2017-03-01T03:01:52.654Z,717.48
2017-03-01T03:02:52.629Z,717.23
2017-03-01T03:03:52.606Z,717.34
2017-03-01T03:04:52.577Z,717.48
2017-03-01T03:05:52.554Z,717.33
2017-03-01T03:06:52.524Z,717.2
2017-03-01T03:07:52.502Z,717.23
2017-03-01T03:08:52.476Z,717.17
2017-03-01T03:09:52.446Z,717.24
2017-03-01T03:10:52.419Z,717.31
2017-03-01T03:11:52.394Z,717.54
2017-03-01T03:12:52.370Z,717.46
2017-03-01T03:13:52.341Z,717.09
2017-03-01T03:14:52.318Z,717.18
2017-03-01T03:15:52.292Z,717.37
2017-03-01T03:16:52.265Z,716.77
2017-03-01T03:17:52.234Z,717.12
2017-03-01T03:18:52.207Z,717
2017-03-01T03:19:52.186Z,717.19
2017-03-01T03:20:52.154Z,717.15
2017-03-01T03:21:52.132Z,717.1
2017-03-01T03:22:52.101Z,717.13
2017-03-01T03:23:52.075Z,717.27
2017-03-01T03:24:52.049Z,717.3
2017-03-01T03:25:52.026Z,717.21
2017-03-01T03:26:51.995Z,717.5
2017-03-01T03:27:51.970Z,717.46
2017-03-01T03:28:51.946Z,717.13
2017-03-01T03:29:51.916Z,717.19
2017-03-01T03:30:51.891Z,717.23
2017-03-01T03:31:51.868Z,716.97
2017-03-01T03:32:51.840Z,717.36
2017-03-01T03:33:51.809Z,717.27
2017-03-01T03:34:51.783Z,717.36
2017-03-01T03:35:51.757Z,717.3
2017-03-01T03:36:51.733Z,717.03
2017-03-01T03:37:51.707Z,716.97
2017-03-01T03:38:51.681Z,717
2017-03-01T03:39:51.650Z,717.1
2017-03-01T03:40:51.625Z,717.15
2017-03-01T03:41:51.599Z,716.99
2017-03-01T03:42:51.575Z,717.21
2017-03-01T03:43:51.548Z,717.02
2017-03-01T03:44:51.521Z,716.98
2017-03-01T03:45:51.491Z,717.11
2017-03-01T03:46:51.465Z,716.87
2017-03-01T03:47:51.441Z,716.72
2017-03-01T03:48:51.412Z,716.85
2017-03-01T03:49:51.384Z,717.04
2017-03-01T03:50:51.361Z,716.82
2017-03-01T03:51:51.334Z,716.83
2017-03-01T03:52:51.308Z,716.85
2017-03-01T03:53:51.278Z,716.81
2017-03-01T03:54:51.254Z,716.58
2017-03-01T03:55:51.225Z,716.72
2017-03-01T03:56:51.201Z,716.81
2017-03-01T03:57:51.170Z,716.95
2017-03-01T03:58:51.147Z,717.09
2017-03-01T03:59:51.117Z,717.08
2017-03-01T04:00:51.091Z,717.28
2017-03-01T04:01:51.062Z,716.95
2017-03-01T04:02:51.035Z,717.32
2017-03-01T04:03:51.212Z,717.11
2017-03-01T04:04:50.987Z,717.27
2017-03-01T04:05:50.959Z,716.93
2017-03-01T04:06:50.932Z,717
2017-03-01T04:07:50.901Z,717.02
2017-03-01T04:08:50.879Z,717.26
2017-03-01T04:09:50.851Z,717.15
2017-03-01T04:10:50.822Z,717.37
2017-03-01T04:11:50.798Z,717.36
2017-03-01T04:12:50.771Z,717.27
2017-03-01T04:13:50.745Z,717.47
2017-03-01T04:14:50.719Z,717.4
2017-03-01T04:15:50.691Z,717.52
2017-03-01T04:16:50.661Z,717.65
2017-03-01T04:17:50.634Z,717.19
2017-03-01T04:18:50.612Z,717.22
2017-03-01T04:19:50.585Z,717.35
2017-03-01T04:20:50.558Z,717.53
2017-03-01T04:21:50.532Z,717.36
2017-03-01T04:22:50.505Z,717.55
2017-03-01T04:23:50.478Z,717.64
2017-03-01T04:24:50.448Z,717.66
2017-03-01T04:25:50.425Z,717.22
2017-03-01T04:26:50.399Z,717.15
2017-03-01T04:27:50.367Z,717.48
2017-03-01T04:28:50.341Z,717.44
2017-03-01T04:29:50.313Z,717.59
2017-03-01T04:30:50.294Z,717.54
2017-03-01T04:31:50.260Z,717.33
2017-03-01T04:32:50.238Z,717.51
2017-03-01T04:33:50.211Z,717.77
2017-03-01T04:34:50.180Z,717.75
2017-03-01T04:35:50.157Z,717.71
2017-03-01T04:36:50.127Z,717.53
2017-03-01T04:37:50.099Z,717.67
2017-03-01T04:38:50.073Z,717.43
2017-03-01T04:39:50.045Z,717.47
2017-03-01T04:40:50.022Z,717.78
2017-03-01T04:41:49.992Z,717.16
2017-03-01T04:42:49.965Z,717.63
2017-03-01T04:43:49.943Z,717.48
2017-03-01T04:44:49.912Z,717
2017-03-01T04:45:49.885Z,717.41
2017-03-01T04:46:49.859Z,717.84
2017-03-01T04:47:49.835Z,717.45
2017-03-01T04:48:49.808Z,717.34
2017-03-01T04:49:49.780Z,717.14
2017-03-01T04:50:49.754Z,717.43
2017-03-01T04:51:49.726Z,717.03
2017-03-01T04:52:49.695Z,717.88
2017-03-01T04:53:49.672Z,716.79
2017-03-01T04:54:49.643Z,717.58
2017-03-01T04:55:49.615Z,717.38
2017-03-01T04:56:49.586Z,717.55
2017-03-01T04:57:49.565Z,717.53
2017-03-01T04:58:49.533Z,717.27
2017-03-01T04:59:49.507Z,717.37
2017-03-01T05:00:49.479Z,717.8
2017-03-01T05:01:49.453Z,717.63
2017-03-01T05:02:49.426Z,717.84
2017-03-01T05:03:49.399Z,717.28
2017-03-01T05:04:49.376Z,717.13
2017-03-01T05:05:49.349Z,717.64
2017-03-01T05:06:49.319Z,717.83
2017-03-01T05:07:49.296Z,718.05
2017-03-01T05:08:49.266Z,717.39
2017-03-01T05:09:49.238Z,717.85
2017-03-01T05:10:49.216Z,717.54
2017-03-01T05:11:49.188Z,718.01
2017-03-01T05:12:49.161Z,717.94
2017-03-01T05:13:49.136Z,717.54
2017-03-01T05:14:49.104Z,717.85
2017-03-01T05:15:49.080Z,717.96
2017-03-01T05:16:49.055Z,717.89
2017-03-01T05:17:49.028Z,717.65
2017-03-01T05:18:49.001Z,717.98
2017-03-01T05:19:48.971Z,717.64
2017-03-01T05:20:48.949Z,717.92
2017-03-01T05:21:48.922Z,717.81
2017-03-01T05:22:48.894Z,717.84
2017-03-01T05:23:48.864Z,717.61
2017-03-01T05:24:48.838Z,717.87
2017-03-01T05:25:48.810Z,717.62
2017-03-01T05:26:48.783Z,717.82
2017-03-01T05:27:48.761Z,717.69
2017-03-01T05:28:48.735Z,717.8
2017-03-01T05:29:48.707Z,717.81
2017-03-01T05:30:48.677Z,717.8
2017-03-01T05:31:48.653Z,717.91
2017-03-01T05:32:48.627Z,717.95
2017-03-01T05:33:48.600Z,718.11
2017-03-01T05:34:48.573Z,718.02
2017-03-01T05:35:48.542Z,717.59
2017-03-01T05:36:48.515Z,717.69
2017-03-01T05:37:48.491Z,717.66
2017-03-01T05:38:48.463Z,717.93
2017-03-01T05:39:48.439Z,717.7
2017-03-01T05:40:48.412Z,718.36
2017-03-01T05:41:48.385Z,717.95
2017-03-01T05:42:48.354Z,717.87
2017-03-01T05:43:48.331Z,718.02
2017-03-01T05:44:48.302Z,718.16
2017-03-01T05:45:48.271Z,718.18
2017-03-01T05:46:48.250Z,717.96
2017-03-01T05:47:48.218Z,717.81
2017-03-01T05:48:48.191Z,717.75
2017-03-01T05:49:48.164Z,717.92
2017-03-01T05:50:48.141Z,717.72
2017-03-01T05:51:48.114Z,717.47
2017-03-01T05:52:48.084Z,717.95
2017-03-01T05:53:48.062Z,717.98
2017-03-01T05:54:48.035Z,718.16
2017-03-01T05:55:48.004Z,717.98
2017-03-01T05:56:47.977Z,718.16
2017-03-01T05:57:47.951Z,717.91
2017-03-01T05:58:47.923Z,718.11
2017-03-01T05:59:47.902Z,718.03
2017-03-01T06:00:47.871Z,718.03
2017-03-01T06:01:47.845Z,718.01
2017-03-01T06:02:47.817Z,717.96
2017-03-01T06:03:47.791Z,718.16
2017-03-01T06:04:47.771Z,718.32
2017-03-01T06:05:47.742Z,718.05
2017-03-01T06:06:47.710Z,718.31
2017-03-01T06:07:47.684Z,717.9
2017-03-01T06:08:47.662Z,718.12
2017-03-01T06:09:47.635Z,718.08
2017-03-01T06:10:47.605Z,718.25
2017-03-01T06:11:47.578Z,718.43
2017-03-01T06:12:47.554Z,717.93
2017-03-01T06:13:47.528Z,718.41
2017-03-01T06:14:47.498Z,718.27
2017-03-01T06:15:47.473Z,718.29
2017-03-01T06:16:47.446Z,718.27
2017-03-01T06:17:47.420Z,717.96
2017-03-01T06:18:47.393Z,718.28
2017-03-01T06:19:47.368Z,718.63
2017-03-01T06:20:47.344Z,718.13
2017-03-01T06:21:47.313Z,718.21
2017-03-01T06:22:47.287Z,718.19
2017-03-01T06:23:47.265Z,718.29
2017-03-01T06:24:47.233Z,718.03
2017-03-01T06:25:47.211Z,718.16
2017-03-01T06:26:47.184Z,718.05
2017-03-01T06:27:47.153Z,717.78
2017-03-01T06:28:47.127Z,717.77
2017-03-01T06:29:47.100Z,718.29
2017-03-01T06:30:47.075Z,718.2
2017-03-01T06:31:47.051Z,718.04
2017-03-01T06:32:47.026Z,718.19
2017-03-01T06:33:47.001Z,718.47
2017-03-01T06:34:46.972Z,718.46
2017-03-01T06:35:46.941Z,718.19
2017-03-01T06:36:46.915Z,718.22
2017-03-01T06:37:46.893Z,718.8
2017-03-01T06:38:46.864Z,718.42
2017-03-01T06:39:46.839Z,718.39
2017-03-01T06:40:46.817Z,718.49
2017-03-01T06:41:46.786Z,718.19
2017-03-01T06:42:46.759Z,718.36
2017-03-01T06:43:46.729Z,718.18
2017-03-01T06:44:46.702Z,718.38
2017-03-01T06:45:46.680Z,718.33
2017-03-01T06:46:46.653Z,718.29
2017-03-01T06:47:46.623Z,718.22
2017-03-01T06:48:46.597Z,718.37
2017-03-01T06:49:46.572Z,718.63
2017-03-01T06:50:46.546Z,718.37
2017-03-01T06:51:46.517Z,718.43
2017-03-01T06:52:46.491Z,718.69
2017-03-01T06:53:46.467Z,718.57
2017-03-01T06:54:46.442Z,718.45
2017-03-01T06:55:46.415Z,718.63
2017-03-01T06:56:46.386Z,718.04
2017-03-01T06:57:46.358Z,718.79
2017-03-01T06:58:46.336Z,718.39
2017-03-01T06:59:46.306Z,718.94
2017-03-01T07:00:46.283Z,718.58
2017-03-01T07:01:46.259Z,718.79
2017-03-01T07:02:46.232Z,718.57
2017-03-01T07:03:46.202Z,718.91
2017-03-01T07:04:46.174Z,718.93
2017-03-01T07:05:46.152Z,718.64
2017-03-01T07:06:46.126Z,719.03
2017-03-01T07:07:46.100Z,718.78
2017-03-01T07:08:46.073Z,718.75
2017-03-01T07:09:46.046Z,718.92
2017-03-01T07:10:46.018Z,718.96
2017-03-01T07:11:45.988Z,719.07
2017-03-01T07:12:45.963Z,719.1
2017-03-01T07:13:45.941Z,718.68
2017-03-01T07:14:45.919Z,718.94
2017-03-01T07:15:45.884Z,719.14
2017-03-01T07:16:45.862Z,719.14
2017-03-01T07:17:45.836Z,719.02
2017-03-01T07:18:45.806Z,719.08
2017-03-01T07:19:45.779Z,719.1
2017-03-01T07:20:45.753Z,719.09
2017-03-01T07:21:45.731Z,718.83
2017-03-01T07:22:45.705Z,718.85
2017-03-01T07:23:45.675Z,718.91
2017-03-01T07:24:45.653Z,719.31
2017-03-01T07:25:45.623Z,718.95
2017-03-01T07:26:45.596Z,719.32
2017-03-01T07:27:45.570Z,719.53
2017-03-01T07:28:45.548Z,718.98
2017-03-01T07:29:45.523Z,718.41
2017-03-01T07:30:45.492Z,719.31
2017-03-01T07:31:45.470Z,719.37
2017-03-01T07:32:45.441Z,719.39
2017-03-01T07:33:45.414Z,719.3
2017-03-01T07:34:45.388Z,719.41
2017-03-01T07:35:45.363Z,719.06
2017-03-01T07:36:45.341Z,719.14
2017-03-01T07:37:45.312Z,719.25
2017-03-01T07:38:45.289Z,719.08
2017-03-01T07:39:45.265Z,719.45
2017-03-01T07:40:45.238Z,719.19
2017-03-01T07:41:45.212Z,719.33
2017-03-01T07:42:45.182Z,719.29
2017-03-01T07:43:45.160Z,719.56
2017-03-01T07:44:45.130Z,719.47
2017-03-01T07:45:45.105Z,719.59
2017-03-01T07:46:45.083Z,719.51
2017-03-01T07:47:45.057Z,719.51
2017-03-01T07:48:45.032Z,719.62
2017-03-01T07:49:45.005Z,719.49
2017-03-01T07:50:44.978Z,719.68
2017-03-01T07:51:44.953Z,719.75
2017-03-01T07:52:44.924Z,719.5
2017-03-01T07:53:44.902Z,719.52
2017-03-01T07:54:44.872Z,719.49
2017-03-01T07:55:44.850Z,719.41
2017-03-01T07:56:44.821Z,719.57
2017-03-01T07:57:44.799Z,719.73
2017-03-01T07:58:44.769Z,720.08
2017-03-01T07:59:44.742Z,719.6
2017-03-01T08:00:44.721Z,719.35
2017-03-01T08:01:44.695Z,719.54
2017-03-01T08:02:44.664Z,719.85
2017-03-01T08:03:44.639Z,719.75
2017-03-01T08:04:44.618Z,719.85
2017-03-01T08:05:44.593Z,719.38
2017-03-01T08:06:44.561Z,719.55
2017-03-01T08:07:44.540Z,719.67
2017-03-01T08:08:44.515Z,719.79
2017-03-01T08:09:44.490Z,719.25
2017-03-01T08:10:44.460Z,719.24
2017-03-01T08:11:44.439Z,719.57
2017-03-01T08:12:44.409Z,719.69
2017-03-01T08:13:44.387Z,719.44
2017-03-01T08:14:44.363Z,720.1
2017-03-01T08:15:44.333Z,719.91
2017-03-01T08:16:44.307Z,719.46
2017-03-01T08:17:44.284Z,719.51
2017-03-01T08:18:44.256Z,719.8
2017-03-01T08:19:44.230Z,719.71
2017-03-01T08:20:44.208Z,719.85
2017-03-01T08:21:44.182Z,720.24
2017-03-01T08:22:44.153Z,719.83
2017-03-01T08:23:44.130Z,719.61
2017-03-01T08:24:44.100Z,719.56
2017-03-01T08:25:44.075Z,719.57
2017-03-01T08:26:44.048Z,720.01
2017-03-01T08:27:44.023Z,719.69
2017-03-01T08:28:43.996Z,719.87
2017-03-01T08:29:43.971Z,719.54
2017-03-01T08:30:43.945Z,720.28
2017-03-01T08:31:43.920Z,719.84
2017-03-01T08:32:43.897Z,719.85
2017-03-01T08:33:43.872Z,719.76
2017-03-01T08:34:43.842Z,719.82
2017-03-01T08:35:43.820Z,719.83
2017-03-01T08:36:43.791Z,719.98
2017-03-01T08:37:43.766Z,720.32
2017-03-01T08:38:43.740Z,719.69
2017-03-01T08:39:43.717Z,719.94
2017-03-01T08:40:43.691Z,719.86
2017-03-01T08:41:43.666Z,720.18
2017-03-01T08:42:43.637Z,720.27
2017-03-01T08:43:43.610Z,720.04
2017-03-01T08:44:43.586Z,719.96
2017-03-01T08:45:43.564Z,720.35
2017-03-01T08:46:43.533Z,720.54
2017-03-01T08:47:43.509Z,720.3
2017-03-01T08:48:43.487Z,720.64
2017-03-01T08:49:43.462Z,720.57
2017-03-01T08:50:43.431Z,720.02
2017-03-01T08:51:43.408Z,720.44
2017-03-01T08:52:43.387Z,720.16
2017-03-01T08:53:43.357Z,720.53
2017-03-01T08:54:43.335Z,720.49
2017-03-01T08:55:43.311Z,720.44
2017-03-01T08:56:43.284Z,720.53
2017-03-01T08:57:43.260Z,720.67
2017-03-01T08:58:43.231Z,720.67
2017-03-01T08:59:43.210Z,720.61
2017-03-01T09:00:43.186Z,720.49
2017-03-01T09:01:43.158Z,720.56
2017-03-01T09:02:43.133Z,720.78
2017-03-01T09:03:43.108Z,720.64
2017-03-01T09:04:43.080Z,720.4
2017-03-01T09:05:43.052Z,720.68
2017-03-01T09:06:43.028Z,720.74
2017-03-01T09:07:43.002Z,720.84
2017-03-01T09:08:42.976Z,720.99
2017-03-01T09:09:42.951Z,721.11
2017-03-01T09:10:42.959Z,720.91
2017-03-01T09:11:42.901Z,720.51
2017-03-01T09:12:42.879Z,720.78
2017-03-01T09:13:42.854Z,721
2017-03-01T09:14:42.826Z,720.98
2017-03-01T09:15:42.801Z,720.75
2017-03-01T09:16:42.779Z,721.11
2017-03-01T09:17:42.750Z,721.08
2017-03-01T09:18:42.725Z,720.78
2017-03-01T09:19:42.699Z,720.94
2017-03-01T09:20:42.678Z,721.09
2017-03-01T09:21:42.654Z,721.07
2017-03-01T09:22:42.624Z,721.11
2017-03-01T09:23:42.599Z,721.18
2017-03-01T09:24:42.578Z,721.15
2017-03-01T09:25:42.549Z,721.03
2017-03-01T09:26:42.528Z,721.1
2017-03-01T09:27:42.499Z,720.94
2017-03-01T09:28:42.475Z,720.99
2017-03-01T09:29:42.457Z,721.05
2017-03-01T09:30:42.428Z,721.44
2017-03-01T09:31:42.403Z,720.98
2017-03-01T09:32:42.378Z,721.27
2017-03-01T09:33:42.353Z,721.35
2017-03-01T09:34:42.327Z,721.2
2017-03-01T09:35:42.302Z,721.18
2017-03-01T09:36:42.274Z,721.05
2017-03-01T09:37:42.247Z,721.19
2017-03-01T09:38:42.227Z,721.14
2017-03-01T09:39:42.208Z,721.57
2017-03-01T09:40:42.176Z,721.55
2017-03-01T09:41:42.147Z,721.54
2017-03-01T09:42:42.124Z,721.28
2017-03-01T09:43:42.102Z,721.37
2017-03-01T09:44:42.074Z,721.29
2017-03-01T09:45:42.052Z,721.39
2017-03-01T09:46:42.024Z,721.39
2017-03-01T09:47:42.002Z,721.24
2017-03-01T09:48:41.977Z,721.25
2017-03-01T09:49:41.951Z,721.6
2017-03-01T09:50:41.923Z,721.62
2017-03-01T09:51:41.898Z,721.39
2017-03-01T09:52:41.873Z,721.48
2017-03-01T09:53:41.851Z,721.68
2017-03-01T09:54:41.827Z,721.47
2017-03-01T09:55:41.799Z,721.77
2017-03-01T09:56:41.772Z,721.4
2017-03-01T09:57:41.752Z,721.41
2017-03-01T09:58:41.723Z,721.58
2017-03-01T09:59:41.702Z,721.49
2017-03-01T10:00:41.673Z,721.63
2017-03-01T10:01:41.649Z,721.62
2017-03-01T10:02:41.624Z,721.74
2017-03-01T10:03:41.603Z,721.42
2017-03-01T10:04:41.579Z,721.27
2017-03-01T10:05:41.550Z,721.53
2017-03-01T10:06:41.526Z,721.53
2017-03-01T10:07:41.501Z,721.54
2017-03-01T10:08:41.480Z,721.6
2017-03-01T10:09:41.456Z,721.41
2017-03-01T10:10:41.427Z,721.78
2017-03-01T10:11:41.403Z,721.9
2017-03-01T10:12:41.377Z,721.83
2017-03-01T10:13:41.356Z,721.62
2017-03-01T10:14:41.327Z,721.75
2017-03-01T10:15:41.307Z,721.72
2017-03-01T10:16:41.283Z,721.79
2017-03-01T10:17:41.255Z,721.93
2017-03-01T10:18:41.229Z,721.9
2017-03-01T10:19:41.209Z,721.87
2017-03-01T10:20:41.182Z,721.49
2017-03-01T10:21:41.160Z,721.63
2017-03-01T10:22:41.136Z,721.82
2017-03-01T10:23:41.108Z,722.07
2017-03-01T10:24:41.084Z,721.74
2017-03-01T10:25:41.062Z,721.94
2017-03-01T10:26:41.034Z,721.69
2017-03-01T10:27:41.013Z,721.8
2017-03-01T10:28:40.985Z,721.89
2017-03-01T10:29:40.961Z,721.87
2017-03-01T10:30:40.939Z,721.87
2017-03-01T10:31:40.916Z,722.23
2017-03-01T10:32:40.886Z,721.9
2017-03-01T10:33:40.865Z,722.03
2017-03-01T10:34:40.842Z,722.34
2017-03-01T10:35:40.819Z,722.31
2017-03-01T10:36:40.793Z,722.08
2017-03-01T10:37:40.769Z,722.19
2017-03-01T10:38:40.744Z,722.18
2017-03-01T10:39:40.720Z,722.23
2017-03-01T10:40:40.697Z,722.3
2017-03-01T10:41:40.666Z,721.82
2017-03-01T10:42:40.642Z,722.02
2017-03-01T10:43:40.618Z,722.21
2017-03-01T10:44:40.597Z,722.25
2017-03-01T10:45:40.569Z,722.23
2017-03-01T10:46:40.543Z,722.27
2017-03-01T10:47:40.523Z,722.36
2017-03-01T10:48:40.498Z,722.35
2017-03-01T10:49:40.474Z,722.25
2017-03-01T10:50:40.450Z,722.26
2017-03-01T10:51:40.422Z,722.33
2017-03-01T10:52:40.402Z,722.35
2017-03-01T10:53:40.378Z,722.3
2017-03-01T10:54:40.349Z,722.43
2017-03-01T10:55:40.330Z,722.18
2017-03-01T10:56:40.306Z,722.5
2017-03-01T10:57:40.282Z,722.49
2017-03-01T10:58:40.257Z,722.34
2017-03-01T10:59:40.230Z,722.41
2017-03-01T11:00:40.210Z,722.44
2017-03-01T11:01:40.186Z,722.42
2017-03-01T11:02:40.163Z,722.53
2017-03-01T11:03:40.133Z,722.42
2017-03-01T11:04:40.114Z,722.43
2017-03-01T11:05:40.087Z,722.54
2017-03-01T11:06:40.066Z,722.68
2017-03-01T11:07:40.043Z,722.33
2017-03-01T11:08:40.019Z,722.36
2017-03-01T11:09:39.991Z,722.41
2017-03-01T11:10:39.971Z,722.42
2017-03-01T11:11:39.947Z,722.74
2017-03-01T11:12:39.919Z,722.68
2017-03-01T11:13:39.898Z,722.49
2017-03-01T11:14:39.874Z,722.5
2017-03-01T11:15:39.846Z,722.24
2017-03-01T11:16:39.825Z,722.41
2017-03-01T11:17:39.798Z,722.41
2017-03-01T11:18:39.773Z,722.53
2017-03-01T11:19:39.756Z,722.51
2017-03-01T11:20:39.727Z,722.69
2017-03-01T11:21:39.704Z,722.55
2017-03-01T11:22:39.681Z,722.85
2017-03-01T11:23:39.653Z,722.54
2017-03-01T11:24:39.633Z,722.54
2017-03-01T11:25:39.605Z,722.44
2017-03-01T11:26:39.588Z,722.63
2017-03-01T11:27:39.559Z,722.57
2017-03-01T11:28:39.535Z,722.54
2017-03-01T11:29:39.515Z,722.66
2017-03-01T11:30:39.491Z,722.62
2017-03-01T11:31:39.463Z,722.58
2017-03-01T11:32:39.443Z,722.83
2017-03-01T11:33:39.417Z,722.8
2017-03-01T11:34:39.395Z,722.73
2017-03-01T11:35:39.371Z,722.72
2017-03-01T11:36:39.356Z,722.73
2017-03-01T11:37:39.329Z,722.6
2017-03-01T11:38:39.295Z,722.57
2017-03-01T11:39:39.276Z,722.58
2017-03-01T11:40:39.257Z,722.58
2017-03-01T11:41:39.224Z,722.52
2017-03-01T11:42:39.203Z,722.65
2017-03-01T11:43:39.175Z,722.58
2017-03-01T11:44:39.151Z,722.85
2017-03-01T11:45:39.126Z,722.81
2017-03-01T11:46:39.103Z,722.77
2017-03-01T11:47:39.085Z,722.4
2017-03-01T11:48:39.061Z,722.69
2017-03-01T11:49:39.040Z,722.64
2017-03-01T11:50:39.013Z,722.8
2017-03-01T11:51:38.980Z,722.71
2017-03-01T11:52:38.960Z,722.6
2017-03-01T11:53:38.934Z,722.46
2017-03-01T11:54:38.910Z,722.56
2017-03-01T11:55:38.881Z,722.64
2017-03-01T11:56:38.860Z,722.7
2017-03-01T11:57:38.831Z,722.72
2017-03-01T11:58:38.811Z,722.96
2017-03-01T11:59:38.783Z,722.88
2017-03-01T12:00:38.757Z,722.44
2017-03-01T12:01:38.737Z,722.57
2017-03-01T12:02:38.712Z,722.5
2017-03-01T12:03:38.685Z,722.61
2017-03-01T12:04:38.659Z,722.66
2017-03-01T12:05:38.633Z,722.7
2017-03-01T12:06:38.613Z,722.77
2017-03-01T12:07:38.588Z,722.82
2017-03-01T12:08:38.559Z,722.64
2017-03-01T12:09:38.535Z,723.04
2017-03-01T12:10:38.513Z,722.78
2017-03-01T12:11:38.486Z,722.68
2017-03-01T12:12:38.462Z,722.77
2017-03-01T12:13:38.445Z,722.78
2017-03-01T12:14:38.413Z,722.85
2017-03-01T12:15:38.388Z,722.9
2017-03-01T12:16:38.365Z,722.69
2017-03-01T12:17:38.338Z,722.92
2017-03-01T12:18:38.315Z,722.89
2017-03-01T12:19:38.294Z,722.79
2017-03-01T12:20:38.270Z,722.77
2017-03-01T12:21:38.249Z,722.95
2017-03-01T12:22:38.217Z,723.07
2017-03-01T12:23:38.192Z,722.69
2017-03-01T12:24:38.171Z,722.71
2017-03-01T12:25:38.149Z,722.88
2017-03-01T12:26:38.126Z,722.86
2017-03-01T12:27:38.101Z,722.67
2017-03-01T12:28:38.072Z,722.9
2017-03-01T12:29:38.051Z,722.79
2017-03-01T12:30:38.023Z,722.72
2017-03-01T12:31:38.003Z,722.94